« Back
NWS Peachtree City, Ga » Text Product » MCN Terminal Aerodrome Forecast


Printer-friendly Version
Current Version              Previous Versions:   1  2  3  4  5  6  7  8  9  

Terminal Aerodrome Forecast

698
FTUS42 KFFC 092338
TAFMCN
TAF
KMCN 092338Z 1000/1024 30010KT P6SM VCSH SCT050 OVC080
      TEMPO 1000/1004 BKN050
     FM101500 29015G25KT P6SM SKC=

USA.gov is the U.S. government's official web portal to all federal, state and local government web resources and services.